sensor_id;sensor_type;location;lat;lon;timestamp;temperature;humidity
45115;DHT22;30877;43.706;10.780;2022-10-16T00:01:35;17.50;96.70
45115;DHT22;30877;43.706;10.780;2022-10-16T00:04:03;17.40;96.70
45115;DHT22;30877;43.706;10.780;2022-10-16T00:06:31;17.40;96.70
45115;DHT22;30877;43.706;10.780;2022-10-16T00:09:00;17.40;96.70
45115;DHT22;30877;43.706;10.780;2022-10-16T00:11:31;17.40;96.70
45115;DHT22;30877;43.706;10.780;2022-10-16T00:14:06;17.40;96.70
45115;DHT22;30877;43.706;10.780;2022-10-16T00:16:35;17.40;96.70
45115;DHT22;30877;43.706;10.780;2022-10-16T00:19:04;17.40;96.70
45115;DHT22;30877;43.706;10.780;2022-10-16T00:21:33;17.40;96.70
45115;DHT22;30877;43.706;10.780;2022-10-16T00:24:03;17.40;96.70
45115;DHT22;30877;43.706;10.780;2022-10-16T00:26:34;17.40;96.70
45115;DHT22;30877;43.706;10.780;2022-10-16T00:29:03;17.40;96.70
45115;DHT22;30877;43.706;10.780;2022-10-16T00:31:31;17.30;96.70
45115;DHT22;30877;43.706;10.780;2022-10-16T00:33:59;17.30;96.70
45115;DHT22;30877;43.706;10.780;2022-10-16T00:36:28;17.30;96.70
45115;DHT22;30877;43.706;10.780;2022-10-16T00:38:57;17.20;96.70
45115;DHT22;30877;43.706;10.780;2022-10-16T00:41:33;17.20;96.70
45115;DHT22;30877;43.706;10.780;2022-10-16T00:44:03;17.20;96.70
45115;DHT22;30877;43.706;10.780;2022-10-16T00:46:35;17.10;96.70
45115;DHT22;30877;43.706;10.780;2022-10-16T00:49:13;17.10;96.70
45115;DHT22;30877;43.706;10.780;2022-10-16T00:51:45;17.10;96.70
45115;DHT22;30877;43.706;10.780;2022-10-16T00:54:15;17.20;96.70
45115;DHT22;30877;43.706;10.780;2022-10-16T00:56:46;17.30;96.70
45115;DHT22;30877;43.706;10.780;2022-10-16T00:59:16;17.20;96.70
45115;DHT22;30877;43.706;10.780;2022-10-16T01:01:45;17.20;96.70
45115;DHT22;30877;43.706;10.780;2022-10-16T01:04:13;17.20;96.70
45115;DHT22;30877;43.706;10.780;2022-10-16T01:06:46;17.20;96.70
45115;DHT22;30877;43.706;10.780;2022-10-16T01:09:19;17.10;96.70
45115;DHT22;30877;43.706;10.780;2022-10-16T01:11:57;17.10;96.70
45115;DHT22;30877;43.706;10.780;2022-10-16T01:14:34;17.10;96.70
45115;DHT22;30877;43.706;10.780;2022-10-16T01:17:08;17.00;96.70
45115;DHT22;30877;43.706;10.780;2022-10-16T01:19:50;17.10;96.70
45115;DHT22;30877;43.706;10.780;2022-10-16T01:22:20;17.00;96.70
45115;DHT22;30877;43.706;10.780;2022-10-16T01:24:52;17.00;96.70
45115;DHT22;30877;43.706;10.780;2022-10-16T01:27:25;17.10;96.70
45115;DHT22;30877;43.706;10.780;2022-10-16T01:29:59;17.00;96.70
45115;DHT22;30877;43.706;10.780;2022-10-16T01:32:33;17.00;96.70
45115;DHT22;30877;43.706;10.780;2022-10-16T01:35:06;16.90;96.70
45115;DHT22;30877;43.706;10.780;2022-10-16T01:37:40;16.90;96.70
45115;DHT22;30877;43.706;10.780;2022-10-16T01:40:11;17.00;96.70
45115;DHT22;30877;43.706;10.780;2022-10-16T01:42:44;17.00;96.70
45115;DHT22;30877;43.706;10.780;2022-10-16T01:45:15;16.90;96.70
45115;DHT22;30877;43.706;10.780;2022-10-16T01:47:46;16.90;96.70
45115;DHT22;30877;43.706;10.780;2022-10-16T01:50:16;16.80;96.70
45115;DHT22;30877;43.706;10.780;2022-10-16T01:52:48;16.80;96.70
45115;DHT22;30877;43.706;10.780;2022-10-16T01:55:21;16.70;96.70
45115;DHT22;30877;43.706;10.780;2022-10-16T01:57:53;16.80;96.70
45115;DHT22;30877;43.706;10.780;2022-10-16T02:00:22;16.80;96.70
45115;DHT22;30877;43.706;10.780;2022-10-16T02:02:53;16.80;96.70
45115;DHT22;30877;43.706;10.780;2022-10-16T02:05:26;16.80;96.70
45115;DHT22;30877;43.706;10.780;2022-10-16T02:07:55;16.70;96.70
45115;DHT22;30877;43.706;10.780;2022-10-16T02:10:26;16.70;96.70
45115;DHT22;30877;43.706;10.780;2022-10-16T02:13:03;16.80;96.70
45115;DHT22;30877;43.706;10.780;2022-10-16T02:15:33;16.80;96.70
45115;DHT22;30877;43.706;10.780;2022-10-16T02:18:02;16.70;96.70
45115;DHT22;30877;43.706;10.780;2022-10-16T02:20:34;16.70;96.70
45115;DHT22;30877;43.706;10.780;2022-10-16T02:23:04;16.70;96.70
45115;DHT22;30877;43.706;10.780;2022-10-16T02:25:37;16.60;96.70
45115;DHT22;30877;43.706;10.780;2022-10-16T02:28:10;16.70;96.70
45115;DHT22;30877;43.706;10.780;2022-10-16T02:30:43;16.70;96.70
45115;DHT22;30877;43.706;10.780;2022-10-16T02:33:13;16.70;96.70
45115;DHT22;30877;43.706;10.780;2022-10-16T02:35:42;16.70;96.70
45115;DHT22;30877;43.706;10.780;2022-10-16T02:38:11;16.70;96.70
45115;DHT22;30877;43.706;10.780;2022-10-16T02:40:40;16.70;96.70
45115;DHT22;30877;43.706;10.780;2022-10-16T02:43:10;16.70;96.70
45115;DHT22;30877;43.706;10.780;2022-10-16T02:45:38;16.70;96.70
45115;DHT22;30877;43.706;10.780;2022-10-16T02:48:06;16.70;96.70
45115;DHT22;30877;43.706;10.780;2022-10-16T02:50:34;16.70;96.70
45115;DHT22;30877;43.706;10.780;2022-10-16T02:53:01;16.80;96.70
45115;DHT22;30877;43.706;10.780;2022-10-16T02:55:29;16.80;96.70
45115;DHT22;30877;43.706;10.780;2022-10-16T02:57:57;16.80;96.70
45115;DHT22;30877;43.706;10.780;2022-10-16T03:00:27;16.80;96.70
45115;DHT22;30877;43.706;10.780;2022-10-16T03:02:55;16.80;96.70
45115;DHT22;30877;43.706;10.780;2022-10-16T03:05:23;16.90;96.70
45115;DHT22;30877;43.706;10.780;2022-10-16T03:07:51;16.80;96.70
45115;DHT22;30877;43.706;10.780;2022-10-16T03:10:20;16.80;96.70
45115;DHT22;30877;43.706;10.780;2022-10-16T03:12:47;16.80;96.70
45115;DHT22;30877;43.706;10.780;2022-10-16T03:15:15;16.80;96.70
45115;DHT22;30877;43.706;10.780;2022-10-16T03:17:44;16.90;96.70
45115;DHT22;30877;43.706;10.780;2022-10-16T03:20:12;16.80;96.70
45115;DHT22;30877;43.706;10.780;2022-10-16T03:22:40;16.80;96.70
45115;DHT22;30877;43.706;10.780;2022-10-16T03:25:08;16.90;96.70
45115;DHT22;30877;43.706;10.780;2022-10-16T03:27:36;16.90;96.70
45115;DHT22;30877;43.706;10.780;2022-10-16T03:30:04;16.80;96.70
45115;DHT22;30877;43.706;10.780;2022-10-16T03:32:33;16.80;96.70
45115;DHT22;30877;43.706;10.780;2022-10-16T03:35:03;16.90;96.70
45115;DHT22;30877;43.706;10.780;2022-10-16T03:37:31;16.90;96.70
45115;DHT22;30877;43.706;10.780;2022-10-16T03:39:59;16.90;96.70
45115;DHT22;30877;43.706;10.780;2022-10-16T03:42:27;17.00;96.70
45115;DHT22;30877;43.706;10.780;2022-10-16T03:44:55;17.00;96.70
45115;DHT22;30877;43.706;10.780;2022-10-16T03:47:23;17.00;96.70
45115;DHT22;30877;43.706;10.780;2022-10-16T03:49:52;16.90;96.70
45115;DHT22;30877;43.706;10.780;2022-10-16T03:52:21;17.00;96.70
45115;DHT22;30877;43.706;10.780;2022-10-16T03:54:49;17.00;96.70
45115;DHT22;30877;43.706;10.780;2022-10-16T03:57:17;17.00;96.70
45115;DHT22;30877;43.706;10.780;2022-10-16T03:59:45;17.00;96.70
45115;DHT22;30877;43.706;10.780;2022-10-16T04:02:13;17.00;96.70
45115;DHT22;30877;43.706;10.780;2022-10-16T04:04:41;17.00;96.70
45115;DHT22;30877;43.706;10.780;2022-10-16T04:07:09;16.90;96.70
45115;DHT22;30877;43.706;10.780;2022-10-16T04:09:38;16.90;96.70
45115;DHT22;30877;43.706;10.780;2022-10-16T04:12:06;16.90;96.70
45115;DHT22;30877;43.706;10.780;2022-10-16T04:14:35;16.80;96.70
45115;DHT22;30877;43.706;10.780;2022-10-16T04:17:02;16.90;96.70
45115;DHT22;30877;43.706;10.780;2022-10-16T04:19:30;16.90;96.70
45115;DHT22;30877;43.706;10.780;2022-10-16T04:21:58;16.90;96.70
45115;DHT22;30877;43.706;10.780;2022-10-16T04:24:26;16.90;96.70
45115;DHT22;30877;43.706;10.780;2022-10-16T04:26:56;16.90;96.70
45115;DHT22;30877;43.706;10.780;2022-10-16T04:29:24;16.90;96.70
45115;DHT22;30877;43.706;10.780;2022-10-16T04:31:52;16.90;96.70
45115;DHT22;30877;43.706;10.780;2022-10-16T04:34:20;16.90;96.70
45115;DHT22;30877;43.706;10.780;2022-10-16T04:36:48;16.80;96.70
45115;DHT22;30877;43.706;10.780;2022-10-16T04:39:17;16.90;96.70
45115;DHT22;30877;43.706;10.780;2022-10-16T04:41:45;16.80;96.70
45115;DHT22;30877;43.706;10.780;2022-10-16T04:44:14;16.80;96.70
45115;DHT22;30877;43.706;10.780;2022-10-16T04:46:42;16.80;96.70
45115;DHT22;30877;43.706;10.780;2022-10-16T04:49:12;16.80;96.70
45115;DHT22;30877;43.706;10.780;2022-10-16T04:51:40;16.80;96.70
45115;DHT22;30877;43.706;10.780;2022-10-16T04:54:08;16.80;96.70
45115;DHT22;30877;43.706;10.780;2022-10-16T04:56:36;16.90;96.70
45115;DHT22;30877;43.706;10.780;2022-10-16T04:59:10;16.90;96.70
45115;DHT22;30877;43.706;10.780;2022-10-16T05:01:39;16.90;96.70
45115;DHT22;30877;43.706;10.780;2022-10-16T05:04:08;16.80;96.70
45115;DHT22;30877;43.706;10.780;2022-10-16T05:06:36;16.80;96.70
45115;DHT22;30877;43.706;10.780;2022-10-16T05:09:06;16.80;96.70
45115;DHT22;30877;43.706;10.780;2022-10-16T05:11:34;16.70;96.70
45115;DHT22;30877;43.706;10.780;2022-10-16T05:14:02;16.60;96.70
45115;DHT22;30877;43.706;10.780;2022-10-16T05:16:30;16.30;96.70
45115;DHT22;30877;43.706;10.780;2022-10-16T05:19:00;16.10;96.70
45115;DHT22;30877;43.706;10.780;2022-10-16T05:21:48;16.40;96.70
45115;DHT22;30877;43.706;10.780;2022-10-16T05:24:16;16.40;96.70
45115;DHT22;30877;43.706;10.780;2022-10-16T05:26:44;16.50;96.70
45115;DHT22;30877;43.706;10.780;2022-10-16T05:29:12;16.60;96.70
45115;DHT22;30877;43.706;10.780;2022-10-16T05:31:41;16.60;96.70
45115;DHT22;30877;43.706;10.780;2022-10-16T05:34:13;16.60;96.70
45115;DHT22;30877;43.706;10.780;2022-10-16T05:36:45;16.60;96.70
45115;DHT22;30877;43.706;10.780;2022-10-16T05:39:14;16.60;96.70
45115;DHT22;30877;43.706;10.780;2022-10-16T05:41:43;16.60;96.70
45115;DHT22;30877;43.706;10.780;2022-10-16T05:44:11;16.60;96.70
45115;DHT22;30877;43.706;10.780;2022-10-16T05:46:39;16.70;96.70
45115;DHT22;30877;43.706;10.780;2022-10-16T05:49:07;16.70;96.70
45115;DHT22;30877;43.706;10.780;2022-10-16T05:51:38;16.70;96.70
45115;DHT22;30877;43.706;10.780;2022-10-16T05:54:05;16.70;96.70
45115;DHT22;30877;43.706;10.780;2022-10-16T05:56:34;16.80;96.70
45115;DHT22;30877;43.706;10.780;2022-10-16T05:59:03;16.80;96.70
45115;DHT22;30877;43.706;10.780;2022-10-16T06:01:32;16.80;96.70
45115;DHT22;30877;43.706;10.780;2022-10-16T06:04:00;16.90;96.70
45115;DHT22;30877;43.706;10.780;2022-10-16T06:06:29;16.90;96.70
45115;DHT22;30877;43.706;10.780;2022-10-16T06:09:00;16.90;96.70
45115;DHT22;30877;43.706;10.780;2022-10-16T06:11:29;17.00;96.70
45115;DHT22;30877;43.706;10.780;2022-10-16T06:14:00;17.00;96.70
45115;DHT22;30877;43.706;10.780;2022-10-16T06:16:30;17.10;96.70
45115;DHT22;30877;43.706;10.780;2022-10-16T06:18:58;17.10;96.70
45115;DHT22;30877;43.706;10.780;2022-10-16T06:21:28;17.10;96.70
45115;DHT22;30877;43.706;10.780;2022-10-16T06:23:58;17.10;96.70
45115;DHT22;30877;43.706;10.780;2022-10-16T06:26:28;17.20;96.70
45115;DHT22;30877;43.706;10.780;2022-10-16T06:28:58;17.20;96.70
45115;DHT22;30877;43.706;10.780;2022-10-16T06:31:27;17.20;96.70
45115;DHT22;30877;43.706;10.780;2022-10-16T06:33:58;17.30;96.70
45115;DHT22;30877;43.706;10.780;2022-10-16T06:36:31;17.30;96.70
45115;DHT22;30877;43.706;10.780;2022-10-16T06:39:01;17.40;96.70
45115;DHT22;30877;43.706;10.780;2022-10-16T06:41:34;17.40;96.70
45115;DHT22;30877;43.706;10.780;2022-10-16T06:44:14;17.40;96.70
45115;DHT22;30877;43.706;10.780;2022-10-16T06:46:42;17.40;96.70
45115;DHT22;30877;43.706;10.780;2022-10-16T06:49:10;17.50;96.70
45115;DHT22;30877;43.706;10.780;2022-10-16T06:51:38;17.50;96.70
45115;DHT22;30877;43.706;10.780;2022-10-16T06:54:11;17.50;96.70
45115;DHT22;30877;43.706;10.780;2022-10-16T06:56:39;17.50;96.70
45115;DHT22;30877;43.706;10.780;2022-10-16T06:59:07;17.60;96.70
45115;DHT22;30877;43.706;10.780;2022-10-16T07:01:36;17.60;96.70
45115;DHT22;30877;43.706;10.780;2022-10-16T07:04:04;17.60;96.70
45115;DHT22;30877;43.706;10.780;2022-10-16T07:06:33;17.70;96.70
45115;DHT22;30877;43.706;10.780;2022-10-16T07:09:06;17.80;96.70
45115;DHT22;30877;43.706;10.780;2022-10-16T07:11:37;17.80;96.70
45115;DHT22;30877;43.706;10.780;2022-10-16T07:14:09;17.90;96.70
45115;DHT22;30877;43.706;10.780;2022-10-16T07:16:39;18.00;96.70
45115;DHT22;30877;43.706;10.780;2022-10-16T07:19:07;18.10;96.70
45115;DHT22;30877;43.706;10.780;2022-10-16T07:21:36;18.10;96.70
45115;DHT22;30877;43.706;10.780;2022-10-16T07:24:05;18.10;96.70
45115;DHT22;30877;43.706;10.780;2022-10-16T07:26:37;18.20;96.70
45115;DHT22;30877;43.706;10.780;2022-10-16T07:29:08;18.20;96.70
45115;DHT22;30877;43.706;10.780;2022-10-16T07:31:39;18.30;96.70
45115;DHT22;30877;43.706;10.780;2022-10-16T07:34:07;18.30;96.70
45115;DHT22;30877;43.706;10.780;2022-10-16T07:36:35;18.40;96.70
45115;DHT22;30877;43.706;10.780;2022-10-16T07:39:03;18.50;96.70
45115;DHT22;30877;43.706;10.780;2022-10-16T07:41:52;18.50;96.70
45115;DHT22;30877;43.706;10.780;2022-10-16T07:44:20;18.60;96.70
45115;DHT22;30877;43.706;10.780;2022-10-16T07:46:48;18.60;96.70
45115;DHT22;30877;43.706;10.780;2022-10-16T07:49:16;18.60;96.70
45115;DHT22;30877;43.706;10.780;2022-10-16T07:51:44;18.70;96.70
45115;DHT22;30877;43.706;10.780;2022-10-16T07:54:12;18.70;96.70
45115;DHT22;30877;43.706;10.780;2022-10-16T07:56:40;18.80;96.70
45115;DHT22;30877;43.706;10.780;2022-10-16T07:59:12;18.80;96.70
45115;DHT22;30877;43.706;10.780;2022-10-16T08:01:51;19.00;96.70
45115;DHT22;30877;43.706;10.780;2022-10-16T08:04:19;19.10;96.70
45115;DHT22;30877;43.706;10.780;2022-10-16T08:06:47;19.20;96.70
45115;DHT22;30877;43.706;10.780;2022-10-16T08:09:14;19.30;96.70
45115;DHT22;30877;43.706;10.780;2022-10-16T08:11:42;19.40;96.70
45115;DHT22;30877;43.706;10.780;2022-10-16T08:14:12;19.50;96.70
45115;DHT22;30877;43.706;10.780;2022-10-16T08:16:40;19.60;96.70
45115;DHT22;30877;43.706;10.780;2022-10-16T08:19:08;19.70;96.70
45115;DHT22;30877;43.706;10.780;2022-10-16T08:21:36;19.70;96.70
45115;DHT22;30877;43.706;10.780;2022-10-16T08:24:04;19.80;96.70
45115;DHT22;30877;43.706;10.780;2022-10-16T08:26:32;19.80;96.70
45115;DHT22;30877;43.706;10.780;2022-10-16T08:28:59;19.70;96.70
45115;DHT22;30877;43.706;10.780;2022-10-16T08:31:29;19.70;96.70
45115;DHT22;30877;43.706;10.780;2022-10-16T08:33:57;19.80;96.70
45115;DHT22;30877;43.706;10.780;2022-10-16T08:36:25;19.90;96.70
45115;DHT22;30877;43.706;10.780;2022-10-16T08:38:53;19.90;96.70
45115;DHT22;30877;43.706;10.780;2022-10-16T08:44:59;20.00;96.70
45115;DHT22;30877;43.706;10.780;2022-10-16T08:47:40;20.00;96.70
45115;DHT22;30877;43.706;10.780;2022-10-16T08:50:13;20.00;96.70
45115;DHT22;30877;43.706;10.780;2022-10-16T08:52:44;20.10;96.70
45115;DHT22;30877;43.706;10.780;2022-10-16T08:55:25;20.10;96.70
45115;DHT22;30877;43.706;10.780;2022-10-16T08:57:56;20.20;96.70
45115;DHT22;30877;43.706;10.780;2022-10-16T09:00:25;20.20;96.70
45115;DHT22;30877;43.706;10.780;2022-10-16T09:03:00;20.20;96.70
45115;DHT22;30877;43.706;10.780;2022-10-16T09:05:57;20.30;96.70
45115;DHT22;30877;43.706;10.780;2022-10-16T09:08:36;20.50;96.70
45115;DHT22;30877;43.706;10.780;2022-10-16T09:11:11;20.50;96.70
45115;DHT22;30877;43.706;10.780;2022-10-16T09:13:50;20.70;96.70
45115;DHT22;30877;43.706;10.780;2022-10-16T09:16:25;20.80;96.70
45115;DHT22;30877;43.706;10.780;2022-10-16T09:19:03;20.90;96.70
45115;DHT22;30877;43.706;10.780;2022-10-16T09:21:36;21.00;96.70
45115;DHT22;30877;43.706;10.780;2022-10-16T09:24:10;21.10;96.70
45115;DHT22;30877;43.706;10.780;2022-10-16T09:26:39;21.20;96.70
45115;DHT22;30877;43.706;10.780;2022-10-16T09:29:10;21.20;96.70
45115;DHT22;30877;43.706;10.780;2022-10-16T09:31:39;21.40;96.70
45115;DHT22;30877;43.706;10.780;2022-10-16T09:34:24;21.50;96.70
45115;DHT22;30877;43.706;10.780;2022-10-16T09:36:52;21.50;96.70
45115;DHT22;30877;43.706;10.780;2022-10-16T09:39:20;21.60;96.70
45115;DHT22;30877;43.706;10.780;2022-10-16T09:41:48;21.80;96.70
45115;DHT22;30877;43.706;10.780;2022-10-16T09:44:20;21.90;96.70
45115;DHT22;30877;43.706;10.780;2022-10-16T09:47:01;21.90;96.70
45115;DHT22;30877;43.706;10.780;2022-10-16T09:49:31;21.90;96.70
45115;DHT22;30877;43.706;10.780;2022-10-16T09:52:05;21.90;96.70
45115;DHT22;30877;43.706;10.780;2022-10-16T09:54:33;22.00;96.70
45115;DHT22;30877;43.706;10.780;2022-10-16T09:57:06;22.20;96.70
45115;DHT22;30877;43.706;10.780;2022-10-16T09:59:45;22.30;96.70
45115;DHT22;30877;43.706;10.780;2022-10-16T10:02:14;22.30;96.70
45115;DHT22;30877;43.706;10.780;2022-10-16T10:04:49;22.30;96.70
45115;DHT22;30877;43.706;10.780;2022-10-16T10:07:21;22.40;96.70
45115;DHT22;30877;43.706;10.780;2022-10-16T10:09:51;22.50;96.70
45115;DHT22;30877;43.706;10.780;2022-10-16T10:12:22;22.70;96.70
45115;DHT22;30877;43.706;10.780;2022-10-16T10:14:55;22.80;96.70
45115;DHT22;30877;43.706;10.780;2022-10-16T10:17:25;22.90;96.70
45115;DHT22;30877;43.706;10.780;2022-10-16T10:19:57;23.00;96.70
45115;DHT22;30877;43.706;10.780;2022-10-16T10:22:29;23.00;96.70
45115;DHT22;30877;43.706;10.780;2022-10-16T10:25:07;23.00;96.70
45115;DHT22;30877;43.706;10.780;2022-10-16T10:27:48;23.10;96.70
45115;DHT22;30877;43.706;10.780;2022-10-16T10:30:20;23.20;96.70
45115;DHT22;30877;43.706;10.780;2022-10-16T10:33:01;23.30;96.70
45115;DHT22;30877;43.706;10.780;2022-10-16T10:35:44;23.30;96.70
45115;DHT22;30877;43.706;10.780;2022-10-16T10:38:25;23.40;96.70
45115;DHT22;30877;43.706;10.780;2022-10-16T10:41:04;23.40;96.70
45115;DHT22;30877;43.706;10.780;2022-10-16T10:43:46;23.30;96.70
45115;DHT22;30877;43.706;10.780;2022-10-16T10:46:23;23.40;96.70
45115;DHT22;30877;43.706;10.780;2022-10-16T10:49:22;23.50;96.70
45115;DHT22;30877;43.706;10.780;2022-10-16T10:52:05;23.50;96.70
45115;DHT22;30877;43.706;10.780;2022-10-16T10:54:40;23.50;96.70
45115;DHT22;30877;43.706;10.780;2022-10-16T10:57:12;23.70;96.70
45115;DHT22;30877;43.706;10.780;2022-10-16T11:02:34;23.80;96.70
45115;DHT22;30877;43.706;10.780;2022-10-16T11:05:36;23.90;96.70
45115;DHT22;30877;43.706;10.780;2022-10-16T11:08:13;24.10;96.70
45115;DHT22;30877;43.706;10.780;2022-10-16T11:10:49;24.30;96.70
45115;DHT22;30877;43.706;10.780;2022-10-16T11:13:24;24.30;96.70
45115;DHT22;30877;43.706;10.780;2022-10-16T11:15:58;24.30;96.70
45115;DHT22;30877;43.706;10.780;2022-10-16T11:18:32;24.20;96.70
45115;DHT22;30877;43.706;10.780;2022-10-16T11:21:04;24.30;96.70
45115;DHT22;30877;43.706;10.780;2022-10-16T11:23:40;24.50;96.70
45115;DHT22;30877;43.706;10.780;2022-10-16T11:26:11;24.60;96.70
45115;DHT22;30877;43.706;10.780;2022-10-16T11:28:44;24.70;96.70
45115;DHT22;30877;43.706;10.780;2022-10-16T11:31:17;24.80;96.70
45115;DHT22;30877;43.706;10.780;2022-10-16T11:33:51;24.70;96.70
45115;DHT22;30877;43.706;10.780;2022-10-16T11:36:25;24.80;96.70
45115;DHT22;30877;43.706;10.780;2022-10-16T11:39:02;24.80;96.70
45115;DHT22;30877;43.706;10.780;2022-10-16T11:41:35;24.90;96.70
45115;DHT22;30877;43.706;10.780;2022-10-16T11:44:17;25.00;96.70
45115;DHT22;30877;43.706;10.780;2022-10-16T11:46:51;25.10;96.70
45115;DHT22;30877;43.706;10.780;2022-10-16T11:49:40;25.10;96.70
45115;DHT22;30877;43.706;10.780;2022-10-16T11:52:15;25.10;96.70
45115;DHT22;30877;43.706;10.780;2022-10-16T11:54:49;25.20;96.70
45115;DHT22;30877;43.706;10.780;2022-10-16T11:57:20;25.30;96.70
45115;DHT22;30877;43.706;10.780;2022-10-16T11:59:52;25.30;96.70
45115;DHT22;30877;43.706;10.780;2022-10-16T12:05:22;25.30;96.70
45115;DHT22;30877;43.706;10.780;2022-10-16T12:08:00;25.40;96.70
45115;DHT22;30877;43.706;10.780;2022-10-16T12:10:31;25.40;96.70
45115;DHT22;30877;43.706;10.780;2022-10-16T12:13:04;25.40;96.70
45115;DHT22;30877;43.706;10.780;2022-10-16T12:15:33;25.40;96.70
45115;DHT22;30877;43.706;10.780;2022-10-16T12:18:23;25.40;96.70
45115;DHT22;30877;43.706;10.780;2022-10-16T12:21:01;25.30;96.70
45115;DHT22;30877;43.706;10.780;2022-10-16T12:23:37;25.30;96.70
45115;DHT22;30877;43.706;10.780;2022-10-16T12:26:08;25.30;96.70
45115;DHT22;30877;43.706;10.780;2022-10-16T12:28:36;25.30;96.70
45115;DHT22;30877;43.706;10.780;2022-10-16T12:31:06;25.40;96.70
45115;DHT22;30877;43.706;10.780;2022-10-16T12:33:37;25.40;96.70
45115;DHT22;30877;43.706;10.780;2022-10-16T12:36:13;25.40;96.70
45115;DHT22;30877;43.706;10.780;2022-10-16T12:38:47;25.40;96.70
45115;DHT22;30877;43.706;10.780;2022-10-16T12:41:27;25.50;96.70
45115;DHT22;30877;43.706;10.780;2022-10-16T12:43:56;25.60;96.70
45115;DHT22;30877;43.706;10.780;2022-10-16T12:46:35;25.70;96.70
45115;DHT22;30877;43.706;10.780;2022-10-16T12:49:28;25.70;96.70
45115;DHT22;30877;43.706;10.780;2022-10-16T12:51:57;25.70;96.70
45115;DHT22;30877;43.706;10.780;2022-10-16T12:54:28;25.80;96.70
45115;DHT22;30877;43.706;10.780;2022-10-16T12:57:19;25.70;96.70
45115;DHT22;30877;43.706;10.780;2022-10-16T12:59:56;25.80;96.70
45115;DHT22;30877;43.706;10.780;2022-10-16T13:02:55;25.90;96.70
45115;DHT22;30877;43.706;10.780;2022-10-16T13:05:40;26.00;96.70
45115;DHT22;30877;43.706;10.780;2022-10-16T13:08:25;26.00;96.70
45115;DHT22;30877;43.706;10.780;2022-10-16T13:10:59;26.00;96.70
45115;DHT22;30877;43.706;10.780;2022-10-16T13:13:50;25.80;96.70
45115;DHT22;30877;43.706;10.780;2022-10-16T13:16:25;25.70;96.70
45115;DHT22;30877;43.706;10.780;2022-10-16T13:19:03;25.70;96.70
45115;DHT22;30877;43.706;10.780;2022-10-16T13:21:46;25.70;96.70
45115;DHT22;30877;43.706;10.780;2022-10-16T13:24:26;25.60;96.70
45115;DHT22;30877;43.706;10.780;2022-10-16T13:27:03;25.40;96.70
45115;DHT22;30877;43.706;10.780;2022-10-16T13:30:54;25.40;96.70
45115;DHT22;30877;43.706;10.780;2022-10-16T13:33:31;25.30;96.70
45115;DHT22;30877;43.706;10.780;2022-10-16T13:35:59;25.30;96.70
45115;DHT22;30877;43.706;10.780;2022-10-16T13:38:29;25.20;96.70
45115;DHT22;30877;43.706;10.780;2022-10-16T13:40:59;25.20;96.70
45115;DHT22;30877;43.706;10.780;2022-10-16T13:43:37;25.10;96.70
45115;DHT22;30877;43.706;10.780;2022-10-16T13:46:13;25.10;96.70
45115;DHT22;30877;43.706;10.780;2022-10-16T13:48:42;25.00;96.70
45115;DHT22;30877;43.706;10.780;2022-10-16T13:51:13;25.00;96.70
45115;DHT22;30877;43.706;10.780;2022-10-16T13:53:42;25.00;96.70
45115;DHT22;30877;43.706;10.780;2022-10-16T13:56:13;24.90;96.70
45115;DHT22;30877;43.706;10.780;2022-10-16T13:58:42;24.90;96.70
45115;DHT22;30877;43.706;10.780;2022-10-16T14:01:18;24.90;96.70
45115;DHT22;30877;43.706;10.780;2022-10-16T14:03:48;24.90;96.70
45115;DHT22;30877;43.706;10.780;2022-10-16T14:06:18;24.90;96.70
45115;DHT22;30877;43.706;10.780;2022-10-16T14:08:57;24.90;96.70
45115;DHT22;30877;43.706;10.780;2022-10-16T14:11:26;24.80;96.70
45115;DHT22;30877;43.706;10.780;2022-10-16T14:13:55;24.80;96.70
45115;DHT22;30877;43.706;10.780;2022-10-16T14:16:28;24.80;96.70
45115;DHT22;30877;43.706;10.780;2022-10-16T14:18:58;24.80;96.70
45115;DHT22;30877;43.706;10.780;2022-10-16T14:21:28;24.80;96.70
45115;DHT22;30877;43.706;10.780;2022-10-16T14:23:56;24.80;96.70
45115;DHT22;30877;43.706;10.780;2022-10-16T14:26:26;24.70;96.70
45115;DHT22;30877;43.706;10.780;2022-10-16T14:29:12;24.70;96.70
45115;DHT22;30877;43.706;10.780;2022-10-16T14:31:42;24.70;96.70
45115;DHT22;30877;43.706;10.780;2022-10-16T14:34:28;24.70;96.70
45115;DHT22;30877;43.706;10.780;2022-10-16T14:36:58;24.80;96.70
45115;DHT22;30877;43.706;10.780;2022-10-16T14:39:26;24.80;96.70
45115;DHT22;30877;43.706;10.780;2022-10-16T14:41:58;24.80;96.70
45115;DHT22;30877;43.706;10.780;2022-10-16T14:44:32;24.80;96.70
45115;DHT22;30877;43.706;10.780;2022-10-16T14:47:12;24.70;96.70
45115;DHT22;30877;43.706;10.780;2022-10-16T14:49:41;24.70;96.70
45115;DHT22;30877;43.706;10.780;2022-10-16T14:52:11;24.60;96.70
45115;DHT22;30877;43.706;10.780;2022-10-16T14:54:40;24.60;96.70
45115;DHT22;30877;43.706;10.780;2022-10-16T14:57:17;24.60;96.70
45115;DHT22;30877;43.706;10.780;2022-10-16T14:59:47;24.50;96.70
45115;DHT22;30877;43.706;10.780;2022-10-16T15:02:27;24.50;96.70
45115;DHT22;30877;43.706;10.780;2022-10-16T15:04:56;24.50;96.70
45115;DHT22;30877;43.706;10.780;2022-10-16T15:07:24;24.50;96.70
45115;DHT22;30877;43.706;10.780;2022-10-16T15:09:53;24.50;96.70
45115;DHT22;30877;43.706;10.780;2022-10-16T15:12:21;24.40;96.70
45115;DHT22;30877;43.706;10.780;2022-10-16T15:14:49;24.40;96.70
45115;DHT22;30877;43.706;10.780;2022-10-16T15:17:19;24.40;96.70
45115;DHT22;30877;43.706;10.780;2022-10-16T15:19:48;24.40;96.70
45115;DHT22;30877;43.706;10.780;2022-10-16T15:22:16;24.40;96.70
45115;DHT22;30877;43.706;10.780;2022-10-16T15:24:44;24.40;96.70
45115;DHT22;30877;43.706;10.780;2022-10-16T15:27:12;24.30;96.70
45115;DHT22;30877;43.706;10.780;2022-10-16T15:29:40;24.30;96.70
45115;DHT22;30877;43.706;10.780;2022-10-16T15:32:09;24.30;96.70
45115;DHT22;30877;43.706;10.780;2022-10-16T15:34:39;24.30;96.70
45115;DHT22;30877;43.706;10.780;2022-10-16T15:37:08;24.20;96.70
45115;DHT22;30877;43.706;10.780;2022-10-16T15:39:36;24.10;96.70
45115;DHT22;30877;43.706;10.780;2022-10-16T15:42:07;24.10;96.70
45115;DHT22;30877;43.706;10.780;2022-10-16T15:44:36;24.00;96.70
45115;DHT22;30877;43.706;10.780;2022-10-16T15:47:04;24.00;96.70
45115;DHT22;30877;43.706;10.780;2022-10-16T15:49:32;24.00;96.70
45115;DHT22;30877;43.706;10.780;2022-10-16T15:52:01;24.00;96.70
45115;DHT22;30877;43.706;10.780;2022-10-16T15:54:29;23.90;96.70